sensor_id;sensor_type;location;lat;lon;timestamp;temperature;humidity
18880;DHT22;9572;52.378;13.404;2022-09-13T00:01:59;12.60;99.90
18880;DHT22;9572;52.378;13.404;2022-09-13T00:04:25;12.60;99.90
18880;DHT22;9572;52.378;13.404;2022-09-13T00:06:52;12.60;99.90
18880;DHT22;9572;52.378;13.404;2022-09-13T00:09:20;12.50;99.90
18880;DHT22;9572;52.378;13.404;2022-09-13T00:11:47;12.50;99.90
18880;DHT22;9572;52.378;13.404;2022-09-13T00:14:14;12.50;99.90
18880;DHT22;9572;52.378;13.404;2022-09-13T00:16:41;12.50;99.90
18880;DHT22;9572;52.378;13.404;2022-09-13T00:19:08;12.50;99.90
18880;DHT22;9572;52.378;13.404;2022-09-13T00:21:35;12.50;99.90
18880;DHT22;9572;52.378;13.404;2022-09-13T00:24:02;12.50;99.90
18880;DHT22;9572;52.378;13.404;2022-09-13T00:26:30;12.50;99.90
18880;DHT22;9572;52.378;13.404;2022-09-13T00:28:58;12.50;99.90
18880;DHT22;9572;52.378;13.404;2022-09-13T00:31:26;12.50;99.90
18880;DHT22;9572;52.378;13.404;2022-09-13T00:33:53;12.50;99.90
18880;DHT22;9572;52.378;13.404;2022-09-13T00:36:21;12.50;99.90
18880;DHT22;9572;52.378;13.404;2022-09-13T00:38:48;12.50;99.90
18880;DHT22;9572;52.378;13.404;2022-09-13T00:41:17;12.50;99.90
18880;DHT22;9572;52.378;13.404;2022-09-13T00:43:48;12.50;99.90
18880;DHT22;9572;52.378;13.404;2022-09-13T00:46:24;12.50;99.90
18880;DHT22;9572;52.378;13.404;2022-09-13T00:48:56;12.40;99.90
18880;DHT22;9572;52.378;13.404;2022-09-13T00:51:26;12.50;99.90
18880;DHT22;9572;52.378;13.404;2022-09-13T00:53:55;12.50;99.90
18880;DHT22;9572;52.378;13.404;2022-09-13T00:56:28;12.50;99.90
18880;DHT22;9572;52.378;13.404;2022-09-13T00:59:00;12.60;99.90
18880;DHT22;9572;52.378;13.404;2022-09-13T01:01:32;12.60;99.90
18880;DHT22;9572;52.378;13.404;2022-09-13T01:04:00;12.60;99.90
18880;DHT22;9572;52.378;13.404;2022-09-13T01:09:46;12.50;99.90
18880;DHT22;9572;52.378;13.404;2022-09-13T01:12:18;12.50;99.90
18880;DHT22;9572;52.378;13.404;2022-09-13T01:14:51;12.50;99.90
18880;DHT22;9572;52.378;13.404;2022-09-13T01:17:18;12.50;99.90
18880;DHT22;9572;52.378;13.404;2022-09-13T01:19:46;12.40;99.90
18880;DHT22;9572;52.378;13.404;2022-09-13T01:25:48;12.40;99.90
18880;DHT22;9572;52.378;13.404;2022-09-13T01:28:40;12.40;99.90
18880;DHT22;9572;52.378;13.404;2022-09-13T01:31:20;12.30;99.90
18880;DHT22;9572;52.378;13.404;2022-09-13T01:33:58;12.30;99.90
18880;DHT22;9572;52.378;13.404;2022-09-13T01:36:46;12.30;99.90
18880;DHT22;9572;52.378;13.404;2022-09-13T01:39:23;12.20;99.90
18880;DHT22;9572;52.378;13.404;2022-09-13T01:42:02;12.20;99.90
18880;DHT22;9572;52.378;13.404;2022-09-13T01:44:44;12.20;99.90
18880;DHT22;9572;52.378;13.404;2022-09-13T01:47:22;12.20;99.90
18880;DHT22;9572;52.378;13.404;2022-09-13T01:49:58;12.10;99.90
18880;DHT22;9572;52.378;13.404;2022-09-13T01:52:36;12.10;99.90
18880;DHT22;9572;52.378;13.404;2022-09-13T01:55:07;12.10;99.90
18880;DHT22;9572;52.378;13.404;2022-09-13T01:57:41;12.10;99.90
18880;DHT22;9572;52.378;13.404;2022-09-13T02:00:11;12.10;99.90
18880;DHT22;9572;52.378;13.404;2022-09-13T02:02:44;12.00;99.90
18880;DHT22;9572;52.378;13.404;2022-09-13T02:05:14;12.00;99.90
18880;DHT22;9572;52.378;13.404;2022-09-13T02:07:44;12.00;99.90
18880;DHT22;9572;52.378;13.404;2022-09-13T02:13:36;11.90;99.90
18880;DHT22;9572;52.378;13.404;2022-09-13T02:16:09;11.90;99.90
18880;DHT22;9572;52.378;13.404;2022-09-13T02:18:40;11.90;99.90
18880;DHT22;9572;52.378;13.404;2022-09-13T02:21:14;11.90;99.90
18880;DHT22;9572;52.378;13.404;2022-09-13T02:23:46;11.80;99.90
18880;DHT22;9572;52.378;13.404;2022-09-13T02:26:15;11.80;99.90
18880;DHT22;9572;52.378;13.404;2022-09-13T02:28:47;11.80;99.90
18880;DHT22;9572;52.378;13.404;2022-09-13T02:31:18;11.80;99.90
18880;DHT22;9572;52.378;13.404;2022-09-13T02:33:50;11.80;99.90
18880;DHT22;9572;52.378;13.404;2022-09-13T02:36:21;11.80;99.90
18880;DHT22;9572;52.378;13.404;2022-09-13T02:38:55;11.80;99.90
18880;DHT22;9572;52.378;13.404;2022-09-13T02:41:29;11.80;99.90
18880;DHT22;9572;52.378;13.404;2022-09-13T02:44:01;11.70;99.90
18880;DHT22;9572;52.378;13.404;2022-09-13T02:46:44;11.80;99.90
18880;DHT22;9572;52.378;13.404;2022-09-13T02:49:20;11.80;99.90
18880;DHT22;9572;52.378;13.404;2022-09-13T02:51:54;11.70;99.90
18880;DHT22;9572;52.378;13.404;2022-09-13T02:54:26;11.80;99.90
18880;DHT22;9572;52.378;13.404;2022-09-13T02:56:58;11.80;99.90
18880;DHT22;9572;52.378;13.404;2022-09-13T02:59:27;11.80;99.90
18880;DHT22;9572;52.378;13.404;2022-09-13T03:01:58;11.70;99.90
18880;DHT22;9572;52.378;13.404;2022-09-13T03:04:28;11.80;99.90
18880;DHT22;9572;52.378;13.404;2022-09-13T03:06:55;11.80;99.90
18880;DHT22;9572;52.378;13.404;2022-09-13T03:09:22;11.80;99.90
18880;DHT22;9572;52.378;13.404;2022-09-13T03:12:10;11.80;99.90
18880;DHT22;9572;52.378;13.404;2022-09-13T03:14:45;11.80;99.90
18880;DHT22;9572;52.378;13.404;2022-09-13T03:17:28;11.80;99.90
18880;DHT22;9572;52.378;13.404;2022-09-13T03:20:08;11.80;99.90
18880;DHT22;9572;52.378;13.404;2022-09-13T03:22:54;11.80;99.90
18880;DHT22;9572;52.378;13.404;2022-09-13T03:25:33;11.80;99.90
18880;DHT22;9572;52.378;13.404;2022-09-13T03:28:13;11.80;99.90
18880;DHT22;9572;52.378;13.404;2022-09-13T03:30:48;11.80;99.90
18880;DHT22;9572;52.378;13.404;2022-09-13T03:33:26;11.80;99.90
18880;DHT22;9572;52.378;13.404;2022-09-13T03:36:02;11.80;99.90
18880;DHT22;9572;52.378;13.404;2022-09-13T03:38:33;11.80;99.90
18880;DHT22;9572;52.378;13.404;2022-09-13T03:41:06;11.80;99.90
18880;DHT22;9572;52.378;13.404;2022-09-13T03:43:37;11.80;99.90
18880;DHT22;9572;52.378;13.404;2022-09-13T03:46:07;11.80;99.90
18880;DHT22;9572;52.378;13.404;2022-09-13T03:48:37;11.80;99.90
18880;DHT22;9572;52.378;13.404;2022-09-13T03:51:07;11.80;99.90
18880;DHT22;9572;52.378;13.404;2022-09-13T03:53:39;11.80;99.90
18880;DHT22;9572;52.378;13.404;2022-09-13T03:56:14;11.80;99.90
18880;DHT22;9572;52.378;13.404;2022-09-13T03:58:42;11.80;99.90
18880;DHT22;9572;52.378;13.404;2022-09-13T04:01:09;11.80;99.90
18880;DHT22;9572;52.378;13.404;2022-09-13T04:03:36;11.70;99.90
18880;DHT22;9572;52.378;13.404;2022-09-13T04:06:04;11.80;99.90
18880;DHT22;9572;52.378;13.404;2022-09-13T04:08:32;11.80;99.90
18880;DHT22;9572;52.378;13.404;2022-09-13T04:10:59;11.80;99.90
18880;DHT22;9572;52.378;13.404;2022-09-13T04:13:27;11.80;99.90
18880;DHT22;9572;52.378;13.404;2022-09-13T04:15:54;11.90;99.90
18880;DHT22;9572;52.378;13.404;2022-09-13T04:18:21;11.90;99.90
18880;DHT22;9572;52.378;13.404;2022-09-13T04:20:56;11.90;99.90
18880;DHT22;9572;52.378;13.404;2022-09-13T04:23:24;12.00;99.90
18880;DHT22;9572;52.378;13.404;2022-09-13T04:25:52;12.00;99.90
18880;DHT22;9572;52.378;13.404;2022-09-13T04:28:20;12.10;99.90
18880;DHT22;9572;52.378;13.404;2022-09-13T04:30:48;12.10;99.90
18880;DHT22;9572;52.378;13.404;2022-09-13T04:33:15;12.20;99.90
18880;DHT22;9572;52.378;13.404;2022-09-13T04:35:42;12.20;99.90
18880;DHT22;9572;52.378;13.404;2022-09-13T04:38:09;12.20;99.90
18880;DHT22;9572;52.378;13.404;2022-09-13T04:40:36;12.30;99.90
18880;DHT22;9572;52.378;13.404;2022-09-13T04:43:05;12.30;99.90
18880;DHT22;9572;52.378;13.404;2022-09-13T04:45:32;12.40;99.90
18880;DHT22;9572;52.378;13.404;2022-09-13T04:48:00;12.40;99.90
18880;DHT22;9572;52.378;13.404;2022-09-13T04:50:27;12.40;99.90
18880;DHT22;9572;52.378;13.404;2022-09-13T04:52:55;12.40;99.90
18880;DHT22;9572;52.378;13.404;2022-09-13T04:55:22;12.40;99.90
18880;DHT22;9572;52.378;13.404;2022-09-13T04:57:52;12.40;99.90
18880;DHT22;9572;52.378;13.404;2022-09-13T05:00:21;12.50;99.90
18880;DHT22;9572;52.378;13.404;2022-09-13T05:02:54;12.50;99.90
18880;DHT22;9572;52.378;13.404;2022-09-13T05:05:20;12.50;99.90
18880;DHT22;9572;52.378;13.404;2022-09-13T05:07:49;12.60;99.90
18880;DHT22;9572;52.378;13.404;2022-09-13T05:10:16;12.70;99.90
18880;DHT22;9572;52.378;13.404;2022-09-13T05:12:43;12.70;99.90
18880;DHT22;9572;52.378;13.404;2022-09-13T05:15:10;12.80;99.90
18880;DHT22;9572;52.378;13.404;2022-09-13T05:17:39;12.80;99.90
18880;DHT22;9572;52.378;13.404;2022-09-13T05:20:07;12.90;99.90
18880;DHT22;9572;52.378;13.404;2022-09-13T05:22:34;12.90;99.90
18880;DHT22;9572;52.378;13.404;2022-09-13T05:25:01;13.00;99.90
18880;DHT22;9572;52.378;13.404;2022-09-13T05:27:28;13.00;99.90
18880;DHT22;9572;52.378;13.404;2022-09-13T05:29:55;13.10;99.90
18880;DHT22;9572;52.378;13.404;2022-09-13T05:32:22;13.20;99.90
18880;DHT22;9572;52.378;13.404;2022-09-13T05:34:50;13.20;99.90
18880;DHT22;9572;52.378;13.404;2022-09-13T05:37:17;13.30;99.90
18880;DHT22;9572;52.378;13.404;2022-09-13T05:39:44;13.40;99.90
18880;DHT22;9572;52.378;13.404;2022-09-13T05:42:11;13.50;99.90
18880;DHT22;9572;52.378;13.404;2022-09-13T05:44:39;13.50;99.90
18880;DHT22;9572;52.378;13.404;2022-09-13T05:47:06;13.60;99.90
18880;DHT22;9572;52.378;13.404;2022-09-13T05:49:33;13.60;99.90
18880;DHT22;9572;52.378;13.404;2022-09-13T05:52:01;13.60;99.90
18880;DHT22;9572;52.378;13.404;2022-09-13T05:54:29;13.60;99.90
18880;DHT22;9572;52.378;13.404;2022-09-13T05:56:56;13.60;99.90
18880;DHT22;9572;52.378;13.404;2022-09-13T05:59:23;13.60;99.90
18880;DHT22;9572;52.378;13.404;2022-09-13T06:01:50;13.60;99.90
18880;DHT22;9572;52.378;13.404;2022-09-13T06:04:16;13.70;99.90
18880;DHT22;9572;52.378;13.404;2022-09-13T06:06:43;13.70;99.90
18880;DHT22;9572;52.378;13.404;2022-09-13T06:09:11;13.70;99.90
18880;DHT22;9572;52.378;13.404;2022-09-13T06:11:38;13.70;99.90
18880;DHT22;9572;52.378;13.404;2022-09-13T06:14:06;13.70;99.90
18880;DHT22;9572;52.378;13.404;2022-09-13T06:16:33;13.60;99.90
18880;DHT22;9572;52.378;13.404;2022-09-13T06:18:59;13.60;99.90
18880;DHT22;9572;52.378;13.404;2022-09-13T06:21:26;13.70;99.90
18880;DHT22;9572;52.378;13.404;2022-09-13T06:23:53;13.60;99.90
18880;DHT22;9572;52.378;13.404;2022-09-13T06:26:23;13.60;99.90
18880;DHT22;9572;52.378;13.404;2022-09-13T06:28:52;13.60;99.90
18880;DHT22;9572;52.378;13.404;2022-09-13T06:31:20;13.50;99.90
18880;DHT22;9572;52.378;13.404;2022-09-13T06:33:53;13.40;99.90
18880;DHT22;9572;52.378;13.404;2022-09-13T06:36:21;13.40;99.90
18880;DHT22;9572;52.378;13.404;2022-09-13T06:38:48;13.40;99.90
18880;DHT22;9572;52.378;13.404;2022-09-13T06:41:17;13.40;99.90
18880;DHT22;9572;52.378;13.404;2022-09-13T06:43:46;13.40;99.90
18880;DHT22;9572;52.378;13.404;2022-09-13T06:46:16;13.40;99.90
18880;DHT22;9572;52.378;13.404;2022-09-13T06:48:44;13.40;99.90
18880;DHT22;9572;52.378;13.404;2022-09-13T06:51:15;13.50;99.90
18880;DHT22;9572;52.378;13.404;2022-09-13T06:53:44;13.50;99.90
18880;DHT22;9572;52.378;13.404;2022-09-13T06:56:13;13.60;99.90
18880;DHT22;9572;52.378;13.404;2022-09-13T06:58:42;13.60;99.90
18880;DHT22;9572;52.378;13.404;2022-09-13T07:01:12;13.60;99.90
18880;DHT22;9572;52.378;13.404;2022-09-13T07:03:41;13.70;99.90
18880;DHT22;9572;52.378;13.404;2022-09-13T07:06:10;13.70;99.90
18880;DHT22;9572;52.378;13.404;2022-09-13T07:08:38;13.80;99.90
18880;DHT22;9572;52.378;13.404;2022-09-13T07:11:05;13.90;99.90
18880;DHT22;9572;52.378;13.404;2022-09-13T07:13:32;14.00;99.90
18880;DHT22;9572;52.378;13.404;2022-09-13T07:16:04;14.20;99.90
18880;DHT22;9572;52.378;13.404;2022-09-13T07:18:33;14.20;99.90
18880;DHT22;9572;52.378;13.404;2022-09-13T07:21:01;14.20;99.90
18880;DHT22;9572;52.378;13.404;2022-09-13T07:23:30;14.40;99.90
18880;DHT22;9572;52.378;13.404;2022-09-13T07:25:57;14.50;99.90
18880;DHT22;9572;52.378;13.404;2022-09-13T07:28:28;14.50;99.90
18880;DHT22;9572;52.378;13.404;2022-09-13T07:30:56;14.70;99.90
18880;DHT22;9572;52.378;13.404;2022-09-13T07:33:24;14.70;99.90
18880;DHT22;9572;52.378;13.404;2022-09-13T07:35:56;14.80;99.90
18880;DHT22;9572;52.378;13.404;2022-09-13T07:38:24;14.80;99.90
18880;DHT22;9572;52.378;13.404;2022-09-13T07:40:54;14.70;99.90
18880;DHT22;9572;52.378;13.404;2022-09-13T07:43:22;14.70;99.90
18880;DHT22;9572;52.378;13.404;2022-09-13T07:45:56;14.70;99.90
18880;DHT22;9572;52.378;13.404;2022-09-13T07:48:23;14.80;99.90
18880;DHT22;9572;52.378;13.404;2022-09-13T07:51:01;14.90;99.90
18880;DHT22;9572;52.378;13.404;2022-09-13T07:53:28;15.00;99.90
18880;DHT22;9572;52.378;13.404;2022-09-13T07:56:00;15.00;99.90
18880;DHT22;9572;52.378;13.404;2022-09-13T07:58:27;15.10;99.90
18880;DHT22;9572;52.378;13.404;2022-09-13T08:00:57;15.10;99.90
18880;DHT22;9572;52.378;13.404;2022-09-13T08:03:26;15.30;99.90
18880;DHT22;9572;52.378;13.404;2022-09-13T08:05:54;15.30;99.90
18880;DHT22;9572;52.378;13.404;2022-09-13T08:08:22;15.30;99.90
18880;DHT22;9572;52.378;13.404;2022-09-13T08:10:49;15.40;99.90
18880;DHT22;9572;52.378;13.404;2022-09-13T08:13:16;15.50;99.90
18880;DHT22;9572;52.378;13.404;2022-09-13T08:15:43;15.60;99.90
18880;DHT22;9572;52.378;13.404;2022-09-13T08:18:10;15.60;99.90
18880;DHT22;9572;52.378;13.404;2022-09-13T08:20:38;15.70;99.90
18880;DHT22;9572;52.378;13.404;2022-09-13T08:23:06;15.70;99.90
18880;DHT22;9572;52.378;13.404;2022-09-13T08:25:35;15.80;99.90
18880;DHT22;9572;52.378;13.404;2022-09-13T08:28:05;15.80;99.90
18880;DHT22;9572;52.378;13.404;2022-09-13T08:30:32;15.90;99.90
18880;DHT22;9572;52.378;13.404;2022-09-13T08:33:01;16.00;99.90
18880;DHT22;9572;52.378;13.404;2022-09-13T08:35:28;16.00;99.90
18880;DHT22;9572;52.378;13.404;2022-09-13T08:37:55;16.00;99.90
18880;DHT22;9572;52.378;13.404;2022-09-13T08:40:26;16.00;99.90
18880;DHT22;9572;52.378;13.404;2022-09-13T08:43:00;16.10;99.90
18880;DHT22;9572;52.378;13.404;2022-09-13T08:45:29;16.10;99.90
18880;DHT22;9572;52.378;13.404;2022-09-13T08:48:00;16.10;99.90
18880;DHT22;9572;52.378;13.404;2022-09-13T08:50:31;16.20;99.90
18880;DHT22;9572;52.378;13.404;2022-09-13T08:53:23;16.20;99.90
18880;DHT22;9572;52.378;13.404;2022-09-13T08:55:57;16.30;99.90
18880;DHT22;9572;52.378;13.404;2022-09-13T09:01:06;16.50;99.90
18880;DHT22;9572;52.378;13.404;2022-09-13T09:03:41;16.60;99.90
18880;DHT22;9572;52.378;13.404;2022-09-13T09:06:13;16.70;99.90
18880;DHT22;9572;52.378;13.404;2022-09-13T09:08:50;16.80;99.90
18880;DHT22;9572;52.378;13.404;2022-09-13T09:11:39;17.00;99.90
18880;DHT22;9572;52.378;13.404;2022-09-13T09:14:35;17.20;99.90
18880;DHT22;9572;52.378;13.404;2022-09-13T09:21:06;17.50;99.90
18880;DHT22;9572;52.378;13.404;2022-09-13T09:36:38;18.40;99.90
18880;DHT22;9572;52.378;13.404;2022-09-13T10:05:30;20.20;99.90
18880;DHT22;9572;52.378;13.404;2022-09-13T10:08:24;20.20;99.90
18880;DHT22;9572;52.378;13.404;2022-09-13T10:10:58;20.30;99.90
18880;DHT22;9572;52.378;13.404;2022-09-13T10:13:27;20.30;99.90
18880;DHT22;9572;52.378;13.404;2022-09-13T10:15:58;20.30;99.90
18880;DHT22;9572;52.378;13.404;2022-09-13T10:18:40;20.20;99.90
18880;DHT22;9572;52.378;13.404;2022-09-13T10:21:23;20.20;99.90
18880;DHT22;9572;52.378;13.404;2022-09-13T10:24:19;20.20;99.90
18880;DHT22;9572;52.378;13.404;2022-09-13T10:26:57;20.20;99.90
18880;DHT22;9572;52.378;13.404;2022-09-13T10:29:27;20.30;99.90
18880;DHT22;9572;52.378;13.404;2022-09-13T10:31:55;20.60;99.90
18880;DHT22;9572;52.378;13.404;2022-09-13T10:34:29;20.80;99.90
18880;DHT22;9572;52.378;13.404;2022-09-13T10:37:00;21.00;99.90
18880;DHT22;9572;52.378;13.404;2022-09-13T10:39:35;21.20;99.90
18880;DHT22;9572;52.378;13.404;2022-09-13T10:42:12;21.40;99.90
18880;DHT22;9572;52.378;13.404;2022-09-13T10:44:52;21.40;99.90
18880;DHT22;9572;52.378;13.404;2022-09-13T10:47:23;21.40;99.90
18880;DHT22;9572;52.378;13.404;2022-09-13T10:49:54;21.40;99.90
18880;DHT22;9572;52.378;13.404;2022-09-13T10:52:33;21.30;99.90
18880;DHT22;9572;52.378;13.404;2022-09-13T10:55:24;21.10;99.90
18880;DHT22;9572;52.378;13.404;2022-09-13T10:57:54;21.00;99.90
18880;DHT22;9572;52.378;13.404;2022-09-13T11:00:23;21.00;99.90
18880;DHT22;9572;52.378;13.404;2022-09-13T11:03:11;20.80;99.90
18880;DHT22;9572;52.378;13.404;2022-09-13T11:05:48;20.80;99.90
18880;DHT22;9572;52.378;13.404;2022-09-13T11:08:35;20.80;99.90
18880;DHT22;9572;52.378;13.404;2022-09-13T11:11:10;20.70;99.90
18880;DHT22;9572;52.378;13.404;2022-09-13T11:13:55;20.60;99.90
18880;DHT22;9572;52.378;13.404;2022-09-13T11:16:33;20.40;99.90
18880;DHT22;9572;52.378;13.404;2022-09-13T11:19:25;20.20;99.90
18880;DHT22;9572;52.378;13.404;2022-09-13T11:22:19;20.20;99.90
18880;DHT22;9572;52.378;13.404;2022-09-13T11:25:11;20.10;99.90
18880;DHT22;9572;52.378;13.404;2022-09-13T11:27:49;20.00;99.90
18880;DHT22;9572;52.378;13.404;2022-09-13T11:30:22;19.80;99.90
18880;DHT22;9572;52.378;13.404;2022-09-13T11:33:06;19.60;99.90
18880;DHT22;9572;52.378;13.404;2022-09-13T11:35:46;19.60;99.90
18880;DHT22;9572;52.378;13.404;2022-09-13T11:38:39;19.50;99.90
18880;DHT22;9572;52.378;13.404;2022-09-13T11:41:20;19.40;99.90
18880;DHT22;9572;52.378;13.404;2022-09-13T11:44:21;19.30;99.90
18880;DHT22;9572;52.378;13.404;2022-09-13T11:46:57;19.10;99.90
18880;DHT22;9572;52.378;13.404;2022-09-13T11:49:43;18.90;99.90
18880;DHT22;9572;52.378;13.404;2022-09-13T11:52:19;18.80;99.90
18880;DHT22;9572;52.378;13.404;2022-09-13T11:55:01;18.70;99.90
18880;DHT22;9572;52.378;13.404;2022-09-13T11:57:41;18.60;99.90
18880;DHT22;9572;52.378;13.404;2022-09-13T12:00:18;18.60;99.90
18880;DHT22;9572;52.378;13.404;2022-09-13T12:02:51;18.60;99.90
18880;DHT22;9572;52.378;13.404;2022-09-13T12:05:26;18.60;99.90
18880;DHT22;9572;52.378;13.404;2022-09-13T12:07:56;18.50;99.90
18880;DHT22;9572;52.378;13.404;2022-09-13T12:10:29;18.60;99.90
18880;DHT22;9572;52.378;13.404;2022-09-13T12:13:08;18.60;99.90
18880;DHT22;9572;52.378;13.404;2022-09-13T12:15:45;18.60;99.90
18880;DHT22;9572;52.378;13.404;2022-09-13T12:18:16;18.60;99.90
18880;DHT22;9572;52.378;13.404;2022-09-13T12:20:47;18.70;99.90
18880;DHT22;9572;52.378;13.404;2022-09-13T12:23:20;18.70;99.90
18880;DHT22;9572;52.378;13.404;2022-09-13T12:25:56;18.70;99.90
18880;DHT22;9572;52.378;13.404;2022-09-13T12:28:33;18.80;99.90
18880;DHT22;9572;52.378;13.404;2022-09-13T12:31:08;18.80;99.90
18880;DHT22;9572;52.378;13.404;2022-09-13T12:33:38;18.80;99.90
18880;DHT22;9572;52.378;13.404;2022-09-13T12:36:26;18.80;99.90
18880;DHT22;9572;52.378;13.404;2022-09-13T12:39:27;18.80;99.90
18880;DHT22;9572;52.378;13.404;2022-09-13T12:45:18;18.80;99.90
18880;DHT22;9572;52.378;13.404;2022-09-13T12:48:24;18.90;99.90
18880;DHT22;9572;52.378;13.404;2022-09-13T12:51:05;18.90;99.90
18880;DHT22;9572;52.378;13.404;2022-09-13T12:53:58;18.90;99.90
18880;DHT22;9572;52.378;13.404;2022-09-13T12:56:41;18.80;99.90
18880;DHT22;9572;52.378;13.404;2022-09-13T12:59:31;18.90;99.90
18880;DHT22;9572;52.378;13.404;2022-09-13T13:02:23;19.00;99.90
18880;DHT22;9572;52.378;13.404;2022-09-13T13:04:55;19.10;99.90
18880;DHT22;9572;52.378;13.404;2022-09-13T13:07:24;19.20;99.90
18880;DHT22;9572;52.378;13.404;2022-09-13T13:09:54;19.30;99.90
18880;DHT22;9572;52.378;13.404;2022-09-13T13:12:28;19.40;99.90
18880;DHT22;9572;52.378;13.404;2022-09-13T13:14:57;19.50;99.90
18880;DHT22;9572;52.378;13.404;2022-09-13T13:17:43;19.70;99.90
18880;DHT22;9572;52.378;13.404;2022-09-13T13:20:43;19.80;99.90
18880;DHT22;9572;52.378;13.404;2022-09-13T13:23:24;19.80;99.90
18880;DHT22;9572;52.378;13.404;2022-09-13T13:26:01;19.90;99.90
18880;DHT22;9572;52.378;13.404;2022-09-13T13:32:07;19.90;99.90
18880;DHT22;9572;52.378;13.404;2022-09-13T13:34:45;19.80;99.90
18880;DHT22;9572;52.378;13.404;2022-09-13T13:37:31;19.80;99.90
18880;DHT22;9572;52.378;13.404;2022-09-13T13:40:23;19.80;99.90
18880;DHT22;9572;52.378;13.404;2022-09-13T13:43:16;20.00;99.90
18880;DHT22;9572;52.378;13.404;2022-09-13T13:48:52;19.80;99.90
18880;DHT22;9572;52.378;13.404;2022-09-13T13:51:30;19.80;99.90
18880;DHT22;9572;52.378;13.404;2022-09-13T13:57:25;19.70;99.90
18880;DHT22;9572;52.378;13.404;2022-09-13T14:00:10;19.80;99.90
18880;DHT22;9572;52.378;13.404;2022-09-13T14:06:05;19.70;99.90
18880;DHT22;9572;52.378;13.404;2022-09-13T14:08:54;19.80;99.90
18880;DHT22;9572;52.378;13.404;2022-09-13T14:11:40;19.90;99.90
18880;DHT22;9572;52.378;13.404;2022-09-13T14:14:27;19.90;99.90
18880;DHT22;9572;52.378;13.404;2022-09-13T14:17:10;20.00;99.90
18880;DHT22;9572;52.378;13.404;2022-09-13T14:19:44;20.10;99.90
18880;DHT22;9572;52.378;13.404;2022-09-13T14:22:15;20.20;99.90
18880;DHT22;9572;52.378;13.404;2022-09-13T14:24:49;20.20;99.90
18880;DHT22;9572;52.378;13.404;2022-09-13T14:27:18;20.20;99.90
18880;DHT22;9572;52.378;13.404;2022-09-13T14:29:48;20.30;99.90
18880;DHT22;9572;52.378;13.404;2022-09-13T14:32:18;20.30;99.90
18880;DHT22;9572;52.378;13.404;2022-09-13T14:34:57;20.20;99.90
18880;DHT22;9572;52.378;13.404;2022-09-13T14:37:28;20.20;99.90
18880;DHT22;9572;52.378;13.404;2022-09-13T14:40:05;20.20;99.90
18880;DHT22;9572;52.378;13.404;2022-09-13T14:42:39;20.20;99.90
18880;DHT22;9572;52.378;13.404;2022-09-13T14:45:12;20.20;99.90
18880;DHT22;9572;52.378;13.404;2022-09-13T14:47:48;20.20;99.90
18880;DHT22;9572;52.378;13.404;2022-09-13T14:50:19;20.20;99.90
18880;DHT22;9572;52.378;13.404;2022-09-13T14:52:48;20.20;99.90
18880;DHT22;9572;52.378;13.404;2022-09-13T14:55:20;20.20;99.90
18880;DHT22;9572;52.378;13.404;2022-09-13T14:57:57;20.20;99.90
18880;DHT22;9572;52.378;13.404;2022-09-13T15:00:26;20.30;99.90
18880;DHT22;9572;52.378;13.404;2022-09-13T15:02:55;20.40;99.90
18880;DHT22;9572;52.378;13.404;2022-09-13T15:05:25;20.40;99.90
18880;DHT22;9572;52.378;13.404;2022-09-13T15:07:52;20.50;99.90
18880;DHT22;9572;52.378;13.404;2022-09-13T15:10:24;20.60;99.90
18880;DHT22;9572;52.378;13.404;2022-09-13T15:12:53;20.70;99.90
18880;DHT22;9572;52.378;13.404;2022-09-13T15:15:23;20.70;99.90
18880;DHT22;9572;52.378;13.404;2022-09-13T15:17:52;20.70;99.90
18880;DHT22;9572;52.378;13.404;2022-09-13T15:20:20;20.60;99.90
18880;DHT22;9572;52.378;13.404;2022-09-13T15:22:47;20.50;99.90
18880;DHT22;9572;52.378;13.404;2022-09-13T15:25:23;20.40;99.90
18880;DHT22;9572;52.378;13.404;2022-09-13T15:27:51;20.20;99.90
18880;DHT22;9572;52.378;13.404;2022-09-13T15:30:22;20.20;99.90
18880;DHT22;9572;52.378;13.404;2022-09-13T15:33:03;20.10;99.90
18880;DHT22;9572;52.378;13.404;2022-09-13T15:35:34;20.10;99.90
18880;DHT22;9572;52.378;13.404;2022-09-13T15:38:17;20.10;99.90
18880;DHT22;9572;52.378;13.404;2022-09-13T15:40:56;20.10;99.90
18880;DHT22;9572;52.378;13.404;2022-09-13T15:43:23;20.10;99.90
18880;DHT22;9572;52.378;13.404;2022-09-13T15:45:50;20.10;99.90
18880;DHT22;9572;52.378;13.404;2022-09-13T15:48:24;20.20;99.90
18880;DHT22;9572;52.378;13.404;2022-09-13T15:51:05;20.20;99.90
18880;DHT22;9572;52.378;13.404;2022-09-13T15:53:33;20.10;99.90
18880;DHT22;9572;52.378;13.404;2022-09-13T15:56:02;20.00;99.90
18880;DHT22;9572;52.378;13.404;2022-09-13T15:58:29;20.00;99.90
18880;DHT22;9572;52.378;13.404;2022-09-13T16:00:56;19.90;99.90
18880;DHT22;9572;52.378;13.404;2022-09-13T16:03:23;19.80;99.90
18880;DHT22;9572;52.378;13.404;2022-09-13T16:05:50;19.70;99.90
18880;DHT22;9572;52.378;13.404;2022-09-13T16:08:17;19.70;99.90
18880;DHT22;9572;52.378;13.404;2022-09-13T16:10:44;19.60;99.90
18880;DHT22;9572;52.378;13.404;2022-09-13T16:13:13;19.50;99.90
18880;DHT22;9572;52.378;13.404;2022-09-13T16:15:40;19.40;99.90
18880;DHT22;9572;52.378;13.404;2022-09-13T16:18:07;19.40;99.90
18880;DHT22;9572;52.378;13.404;2022-09-13T16:20:35;19.30;99.90
18880;DHT22;9572;52.378;13.404;2022-09-13T16:23:02;19.30;99.90
18880;DHT22;9572;52.378;13.404;2022-09-13T16:25:28;19.20;99.90
18880;DHT22;9572;52.378;13.404;2022-09-13T16:27:56;19.10;99.90
18880;DHT22;9572;52.378;13.404;2022-09-13T16:30:25;19.10;99.90
18880;DHT22;9572;52.378;13.404;2022-09-13T16:32:55;19.00;99.90
18880;DHT22;9572;52.378;13.404;2022-09-13T16:35:23;18.90;99.90
18880;DHT22;9572;52.378;13.404;2022-09-13T16:37:50;18.90;99.90
18880;DHT22;9572;52.378;13.404;2022-09-13T16:40:18;18.90;99.90
18880;DHT22;9572;52.378;13.404;2022-09-13T16:42:45;18.80;99.90
18880;DHT22;9572;52.378;13.404;2022-09-13T16:45:12;18.80;99.90
18880;DHT22;9572;52.378;13.404;2022-09-13T16:47:41;18.80;99.90
18880;DHT22;9572;52.378;13.404;2022-09-13T16:50:08;18.70;99.90
18880;DHT22;9572;52.378;13.404;2022-09-13T16:52:35;18.70;99.90
18880;DHT22;9572;52.378;13.404;2022-09-13T16:55:03;18.60;99.90
18880;DHT22;9572;52.378;13.404;2022-09-13T16:57:31;18.60;99.90
18880;DHT22;9572;52.378;13.404;2022-09-13T16:59:58;18.60;99.90
18880;DHT22;9572;52.378;13.404;2022-09-13T17:02:27;18.50;99.90
18880;DHT22;9572;52.378;13.404;2022-09-13T17:04:56;18.50;99.90
18880;DHT22;9572;52.378;13.404;2022-09-13T17:07:22;18.40;99.90
18880;DHT22;9572;52.378;13.404;2022-09-13T17:09:49;18.30;99.90
18880;DHT22;9572;52.378;13.404;2022-09-13T17:12:16;18.30;99.90
18880;DHT22;9572;52.378;13.404;2022-09-13T17:14:44;18.20;99.90
18880;DHT22;9572;52.378;13.404;2022-09-13T17:17:12;18.20;99.90